Time;durP1;ratioP1;P1;durP2;ratioP2;P2;SDS_P1;SDS_P2;PMS_P1;PMS_P2;Temp;Humidity;BMP_temperature;BMP_pressure;BME280_temperature;BME280_humidity;BME280_pressure;Samples;Min_cycle;Max_cycle;Signal;HPM_P1;HPM_P2
2022/03/15 00:00:27;;;;;;;;;;;11.10;68.50;;;;;;2350550;57;20086;-73
2022/03/15 00:02:53;;;;;;;;;;;11.10;69.00;;;;;;2351116;57;20126;-73
2022/03/15 00:05:20;;;;;;;;;;;11.10;69.30;;;;;;2350651;57;20137;-73
2022/03/15 00:07:47;;;;;;;;;;;11.10;68.40;;;;;;2351158;57;20122;-73
2022/03/15 00:10:14;;;;;;;;;;;11.10;68.70;;;;;;2350936;57;20129;-73
2022/03/15 00:12:41;;;;;;;;;;;11.10;68.60;;;;;;2350698;57;20127;-71
2022/03/15 00:15:09;;;;;;;;;;;11.00;68.50;;;;;;2350788;57;20401;-73
2022/03/15 00:17:36;;;;;;;;;;;11.00;67.70;;;;;;2597310;53;20078;-73
2022/03/15 00:20:03;;;;;;;;;;;11.10;67.80;;;;;;2598579;53;20082;-72
2022/03/15 00:22:35;;;;;;;;;;;11.10;68.60;;;;;;2351030;57;20070;-73
2022/03/15 00:25:02;;;;;;;;;;;11.00;68.10;;;;;;2351005;57;20090;-73
2022/03/15 00:27:28;;;;;;;;;;;11.00;68.40;;;;;;2350129;57;20050;-75
2022/03/15 00:29:55;;;;;;;;;;;11.00;68.30;;;;;;2349326;57;20094;-73
2022/03/15 00:32:22;;;;;;;;;;;11.00;68.10;;;;;;2350202;57;20134;-72
2022/03/15 00:34:48;;;;;;;;;;;11.00;68.30;;;;;;2348231;57;20145;-73
2022/03/15 00:37:15;;;;;;;;;;;11.00;67.80;;;;;;2350483;57;20099;-73
2022/03/15 00:39:42;;;;;;;;;;;10.90;68.00;;;;;;2349691;57;20412;-73
2022/03/15 00:42:09;;;;;;;;;;;10.90;67.90;;;;;;2597668;52;20066;-72
2022/03/15 00:44:35;;;;;;;;;;;10.90;67.40;;;;;;2349953;57;20364;-72
2022/03/15 00:47:02;;;;;;;;;;;10.90;67.50;;;;;;2349792;57;20114;-73
2022/03/15 00:49:29;;;;;;;;;;;10.90;67.40;;;;;;2349773;57;20090;-72
2022/03/15 00:51:55;;;;;;;;;;;10.80;67.30;;;;;;2348067;57;20079;-72
2022/03/15 00:54:22;;;;;;;;;;;10.80;68.40;;;;;;2349775;57;20117;-72
2022/03/15 00:56:49;;;;;;;;;;;10.80;67.70;;;;;;2349536;57;20082;-73
2022/03/15 00:59:15;;;;;;;;;;;10.80;67.40;;;;;;2349612;57;20115;-73
2022/03/15 01:01:42;;;;;;;;;;;10.80;67.50;;;;;;2349928;57;20082;-72
2022/03/15 01:04:09;;;;;;;;;;;10.70;68.00;;;;;;2349533;57;20110;-73
2022/03/15 01:06:37;;;;;;;;;;;10.70;68.50;;;;;;2348334;57;20233;-72
2022/03/15 01:09:04;;;;;;;;;;;10.60;68.80;;;;;;2349642;57;20082;-70
2022/03/15 01:11:30;;;;;;;;;;;10.60;68.60;;;;;;2597607;52;20122;-72
2022/03/15 01:13:57;;;;;;;;;;;10.60;68.50;;;;;;2349862;57;20078;-73
2022/03/15 01:16:24;;;;;;;;;;;10.60;68.40;;;;;;2350053;57;20122;-72
2022/03/15 01:18:50;;;;;;;;;;;10.60;68.40;;;;;;2349750;57;20133;-72
2022/03/15 01:21:18;;;;;;;;;;;10.60;68.50;;;;;;2349735;57;20078;-72
2022/03/15 01:23:45;;;;;;;;;;;10.60;68.70;;;;;;2348341;57;20129;-72
2022/03/15 01:26:13;;;;;;;;;;;10.70;68.90;;;;;;2349431;57;20114;-73
2022/03/15 01:28:40;;;;;;;;;;;10.60;68.60;;;;;;2350039;57;20327;-70
2022/03/15 01:31:07;;;;;;;;;;;10.60;68.60;;;;;;2350015;57;20050;-72
2022/03/15 01:33:34;;;;;;;;;;;10.70;68.40;;;;;;2349810;57;20125;-72
2022/03/15 01:36:00;;;;;;;;;;;10.60;69.10;;;;;;2350354;57;20062;-73
2022/03/15 01:38:27;;;;;;;;;;;10.60;68.30;;;;;;2349088;57;20376;-73
2022/03/15 01:43:29;;;;;;;;;;;10.60;67.60;;;;;;2331431;57;20118;-72
2022/03/15 01:45:55;;;;;;;;;;;10.70;67.20;;;;;;2350086;57;20121;-72
2022/03/15 01:48:21;;;;;;;;;;;10.70;67.40;;;;;;2350604;57;20067;-73
2022/03/15 01:50:48;;;;;;;;;;;10.70;67.10;;;;;;2347087;57;20074;-73
2022/03/15 01:53:14;;;;;;;;;;;10.70;67.20;;;;;;2323529;58;20115;-71
2022/03/15 01:55:41;;;;;;;;;;;10.70;67.20;;;;;;2323038;58;20330;-73
2022/03/15 01:58:07;;;;;;;;;;;10.70;66.90;;;;;;2323477;58;20119;-71
2022/03/15 02:00:35;;;;;;;;;;;10.60;67.30;;;;;;2323049;58;20317;-72
2022/03/15 02:03:02;;;;;;;;;;;10.60;67.30;;;;;;2323621;58;20071;-72
2022/03/15 02:05:29;;;;;;;;;;;10.60;67.70;;;;;;2322960;58;20115;-72
2022/03/15 02:07:56;;;;;;;;;;;10.60;67.50;;;;;;2323649;58;20079;-72
2022/03/15 02:10:23;;;;;;;;;;;10.60;67.90;;;;;;2322954;58;20087;-73
2022/03/15 02:12:50;;;;;;;;;;;10.60;66.40;;;;;;2323258;58;20142;-72
2022/03/15 02:15:16;;;;;;;;;;;10.60;67.10;;;;;;2323310;58;20079;-72
2022/03/15 02:17:43;;;;;;;;;;;10.60;68.30;;;;;;2323376;58;20092;-72
2022/03/15 02:20:10;;;;;;;;;;;10.60;67.40;;;;;;2322918;58;20143;-72
2022/03/15 02:22:37;;;;;;;;;;;10.60;67.00;;;;;;2323515;58;20087;-72
2022/03/15 02:25:04;;;;;;;;;;;10.60;66.60;;;;;;2299196;56;20077;-75
2022/03/15 02:27:30;;;;;;;;;;;10.60;66.80;;;;;;2245330;60;20148;-75
2022/03/15 02:29:56;;;;;;;;;;;10.60;67.60;;;;;;2244477;60;20081;-73
2022/03/15 02:32:23;;;;;;;;;;;10.50;67.20;;;;;;2252900;56;20149;-73
2022/03/15 02:34:49;;;;;;;;;;;10.50;67.20;;;;;;2243868;60;20077;-75
2022/03/15 02:37:16;;;;;;;;;;;10.40;67.30;;;;;;2244120;60;20069;-75
2022/03/15 02:39:43;;;;;;;;;;;10.40;67.70;;;;;;2379204;56;20563;-75
2022/03/15 02:42:09;;;;;;;;;;;10.40;68.20;;;;;;2243890;60;20065;-75
2022/03/15 02:44:36;;;;;;;;;;;10.40;68.20;;;;;;2243750;60;20069;-75
2022/03/15 02:47:03;;;;;;;;;;;10.30;68.00;;;;;;2243696;60;20319;-75
2022/03/15 02:49:29;;;;;;;;;;;10.30;68.10;;;;;;2244006;60;20239;-75
2022/03/15 02:51:56;;;;;;;;;;;10.30;67.80;;;;;;2243610;60;20192;-75
2022/03/15 02:54:22;;;;;;;;;;;10.30;67.20;;;;;;2242473;60;20151;-75
2022/03/15 02:59:27;;;;;;;;;;;10.30;67.70;;;;;;2331690;57;20244;-75
2022/03/15 03:01:53;;;;;;;;;;;10.30;67.10;;;;;;2364021;56;20057;-75
2022/03/15 03:04:21;;;;;;;;;;;10.30;67.90;;;;;;2374038;56;20149;-75
2022/03/15 03:06:48;;;;;;;;;;;10.30;67.00;;;;;;2373884;56;20066;-74
2022/03/15 03:09:16;;;;;;;;;;;10.30;67.30;;;;;;2552274;52;20061;-73
2022/03/15 03:11:42;;;;;;;;;;;10.30;66.60;;;;;;2374301;56;20114;-73
2022/03/15 03:14:12;;;;;;;;;;;10.30;66.80;;;;;;2372357;56;20073;-73
2022/03/15 03:16:40;;;;;;;;;;;10.20;67.20;;;;;;2390232;52;20075;-73
2022/03/15 03:19:08;;;;;;;;;;;10.20;67.80;;;;;;2376979;52;20371;-73
2022/03/15 03:21:36;;;;;;;;;;;10.10;67.80;;;;;;2373726;56;20069;-73
2022/03/15 03:24:06;;;;;;;;;;;10.10;67.70;;;;;;2374093;56;20122;-74
2022/03/15 03:26:34;;;;;;;;;;;10.10;67.70;;;;;;2374273;56;20078;-75
2022/03/15 03:29:00;;;;;;;;;;;10.20;68.50;;;;;;2392473;52;20129;-73
2022/03/15 03:31:29;;;;;;;;;;;10.10;67.70;;;;;;2373698;56;20320;-75
2022/03/15 03:33:55;;;;;;;;;;;10.20;67.80;;;;;;2374367;56;20269;-75
2022/03/15 03:36:22;;;;;;;;;;;10.30;67.40;;;;;;2373700;56;20360;-75
2022/03/15 03:38:50;;;;;;;;;;;10.20;67.50;;;;;;2373611;56;20459;-75
2022/03/15 03:41:16;;;;;;;;;;;10.20;67.80;;;;;;2374258;56;20110;-75
2022/03/15 03:43:43;;;;;;;;;;;10.20;68.10;;;;;;2374172;56;20073;-75
2022/03/15 03:46:09;;;;;;;;;;;10.20;67.10;;;;;;2373954;56;20348;-75
2022/03/15 03:48:36;;;;;;;;;;;10.20;66.80;;;;;;2373921;56;20084;-75
2022/03/15 03:51:03;;;;;;;;;;;10.30;67.00;;;;;;2373506;56;20070;-75
2022/03/15 03:53:30;;;;;;;;;;;10.20;67.60;;;;;;2373636;56;20142;-75
2022/03/15 03:55:56;;;;;;;;;;;10.30;67.00;;;;;;2490235;52;20081;-73
2022/03/15 03:58:23;;;;;;;;;;;10.30;67.00;;;;;;2374158;56;20133;-75
2022/03/15 04:00:49;;;;;;;;;;;10.20;67.10;;;;;;2373473;56;20081;-75
2022/03/15 04:03:17;;;;;;;;;;;10.30;67.10;;;;;;2374054;56;20490;-75
2022/03/15 04:05:44;;;;;;;;;;;10.20;67.10;;;;;;2373931;56;20137;-75
2022/03/15 04:08:13;;;;;;;;;;;10.30;67.20;;;;;;2374056;56;20144;-75
2022/03/15 04:10:40;;;;;;;;;;;10.20;67.10;;;;;;2372629;56;20117;-75
2022/03/15 04:13:07;;;;;;;;;;;10.20;67.00;;;;;;2373445;56;20155;-75
2022/03/15 04:15:35;;;;;;;;;;;10.20;67.10;;;;;;2372769;56;20104;-75
2022/03/15 04:18:03;;;;;;;;;;;10.30;67.20;;;;;;2373288;56;20077;-74
2022/03/15 04:20:31;;;;;;;;;;;10.20;67.30;;;;;;2373351;56;20228;-75
2022/03/15 04:22:57;;;;;;;;;;;10.30;67.20;;;;;;2373012;56;20081;-75
2022/03/15 04:25:25;;;;;;;;;;;10.30;67.20;;;;;;2373173;56;20065;-73
2022/03/15 04:27:54;;;;;;;;;;;10.30;67.00;;;;;;2386538;52;20073;-73
2022/03/15 04:30:21;;;;;;;;;;;10.20;66.90;;;;;;2370139;56;20117;-73
2022/03/15 04:32:47;;;;;;;;;;;10.20;66.60;;;;;;2373018;56;20117;-73
2022/03/15 04:35:14;;;;;;;;;;;10.20;66.50;;;;;;2373285;56;20065;-75
2022/03/15 04:37:40;;;;;;;;;;;10.20;66.30;;;;;;2373271;56;20073;-74
2022/03/15 04:40:09;;;;;;;;;;;10.30;66.00;;;;;;2372931;56;20077;-75
2022/03/15 04:42:35;;;;;;;;;;;10.20;65.80;;;;;;2373070;56;20359;-75
2022/03/15 04:45:02;;;;;;;;;;;10.20;65.80;;;;;;2372910;56;20121;-75
2022/03/15 04:47:29;;;;;;;;;;;10.20;65.60;;;;;;2371037;56;20126;-75
2022/03/15 04:49:56;;;;;;;;;;;10.20;65.60;;;;;;2372238;56;20077;-75
2022/03/15 04:52:22;;;;;;;;;;;10.20;67.00;;;;;;2372898;56;20120;-75
2022/03/15 04:54:49;;;;;;;;;;;10.10;66.10;;;;;;2372592;56;20124;-75
2022/03/15 04:57:15;;;;;;;;;;;10.10;65.80;;;;;;2372674;56;20235;-77
2022/03/15 04:59:42;;;;;;;;;;;10.10;65.80;;;;;;2471003;52;20065;-76
2022/03/15 05:02:08;;;;;;;;;;;10.10;65.80;;;;;;2372493;56;20133;-74
2022/03/15 05:04:35;;;;;;;;;;;10.10;65.60;;;;;;2372871;56;20132;-75
2022/03/15 05:07:02;;;;;;;;;;;10.10;66.10;;;;;;2373057;56;20062;-75
2022/03/15 05:09:28;;;;;;;;;;;10.10;66.90;;;;;;2372775;56;20236;-75
2022/03/15 05:11:55;;;;;;;;;;;10.10;66.00;;;;;;2373046;56;20332;-75
2022/03/15 05:14:21;;;;;;;;;;;10.10;65.60;;;;;;2509210;52;20121;-75
2022/03/15 05:16:48;;;;;;;;;;;10.10;65.70;;;;;;2372961;56;20133;-75
2022/03/15 05:19:14;;;;;;;;;;;10.10;65.70;;;;;;2372246;56;20152;-75
2022/03/15 05:21:41;;;;;;;;;;;10.10;65.80;;;;;;2372750;56;20101;-75
2022/03/15 05:24:07;;;;;;;;;;;10.10;65.80;;;;;;2373058;56;20152;-75
2022/03/15 05:26:34;;;;;;;;;;;10.00;65.90;;;;;;2372568;56;20335;-73
2022/03/15 05:29:00;;;;;;;;;;;10.00;65.90;;;;;;2372543;56;20133;-74
2022/03/15 05:31:28;;;;;;;;;;;10.00;66.00;;;;;;2372836;56;20059;-74
2022/03/15 05:33:55;;;;;;;;;;;10.00;66.00;;;;;;2373009;56;20070;-74
2022/03/15 05:36:22;;;;;;;;;;;10.00;66.90;;;;;;2372451;56;20086;-75
2022/03/15 05:38:48;;;;;;;;;;;10.00;66.30;;;;;;2372582;56;20124;-75
2022/03/15 05:41:15;;;;;;;;;;;10.00;66.50;;;;;;2372925;56;20073;-75
2022/03/15 05:43:41;;;;;;;;;;;10.00;66.70;;;;;;2373077;56;20124;-75
2022/03/15 05:46:08;;;;;;;;;;;10.00;66.90;;;;;;2373160;56;20313;-74
2022/03/15 05:48:34;;;;;;;;;;;10.00;66.90;;;;;;2372976;56;20301;-75
2022/03/15 05:51:01;;;;;;;;;;;10.00;67.00;;;;;;2373013;56;20066;-74
2022/03/15 05:53:27;;;;;;;;;;;10.00;66.80;;;;;;2372533;56;20125;-74
2022/03/15 05:55:54;;;;;;;;;;;10.00;66.70;;;;;;2373079;56;20089;-74
2022/03/15 05:58:20;;;;;;;;;;;10.00;66.80;;;;;;2474705;52;20058;-74
2022/03/15 06:00:47;;;;;;;;;;;10.00;67.00;;;;;;2372943;56;20113;-74
2022/03/15 06:03:14;;;;;;;;;;;10.00;67.10;;;;;;2370923;56;20081;-74
2022/03/15 06:05:40;;;;;;;;;;;10.00;67.10;;;;;;2372959;56;20125;-75
2022/03/15 06:08:08;;;;;;;;;;;10.00;66.90;;;;;;2626050;52;20066;-74
2022/03/15 06:10:35;;;;;;;;;;;10.00;66.80;;;;;;2372427;56;20077;-74
2022/03/15 06:13:02;;;;;;;;;;;10.00;66.70;;;;;;2373189;56;20061;-74
2022/03/15 06:15:29;;;;;;;;;;;10.00;66.60;;;;;;2373146;56;20065;-75
2022/03/15 06:20:31;;;;;;;;;;;10.00;66.50;;;;;;2331343;57;20289;-72
2022/03/15 06:22:59;;;;;;;;;;;10.00;66.20;;;;;;2649345;52;20061;-75
2022/03/15 06:25:26;;;;;;;;;;;10.00;66.20;;;;;;2392944;56;20069;-76
2022/03/15 06:27:52;;;;;;;;;;;10.00;66.10;;;;;;2392876;56;20120;-75
2022/03/15 06:30:20;;;;;;;;;;;10.00;66.40;;;;;;2437236;52;20133;-75
2022/03/15 06:32:46;;;;;;;;;;;10.00;66.80;;;;;;2392498;56;20386;-74
2022/03/15 06:35:14;;;;;;;;;;;9.90;67.80;;;;;;2392466;56;20125;-75
2022/03/15 06:37:43;;;;;;;;;;;9.90;66.80;;;;;;2392420;56;20152;-75
2022/03/15 06:40:11;;;;;;;;;;;9.90;67.20;;;;;;2481485;52;20140;-75
2022/03/15 06:42:38;;;;;;;;;;;9.90;67.10;;;;;;2393098;56;20056;-75
2022/03/15 06:45:06;;;;;;;;;;;9.90;67.40;;;;;;2392527;56;20385;-75
2022/03/15 06:47:33;;;;;;;;;;;9.90;67.40;;;;;;2393146;56;20116;-75
2022/03/15 06:50:00;;;;;;;;;;;9.90;67.40;;;;;;2392682;56;20155;-74
2022/03/15 06:52:26;;;;;;;;;;;9.90;66.60;;;;;;2392888;56;20068;-74
2022/03/15 06:54:53;;;;;;;;;;;9.90;67.50;;;;;;2392962;56;20081;-73
2022/03/15 06:57:19;;;;;;;;;;;9.90;67.30;;;;;;2393205;56;20081;-74
2022/03/15 06:59:46;;;;;;;;;;;9.90;67.60;;;;;;2392847;56;20132;-74
2022/03/15 07:02:13;;;;;;;;;;;9.90;67.50;;;;;;2392691;56;20307;-74
2022/03/15 07:04:40;;;;;;;;;;;9.90;67.50;;;;;;2392821;56;20125;-74
2022/03/15 07:07:07;;;;;;;;;;;10.00;67.80;;;;;;2393183;56;20065;-74
2022/03/15 07:09:33;;;;;;;;;;;10.00;68.00;;;;;;2392878;56;20085;-74
2022/03/15 07:12:00;;;;;;;;;;;10.00;68.00;;;;;;2392758;56;20073;-74
2022/03/15 07:14:26;;;;;;;;;;;10.00;67.60;;;;;;2581566;52;20136;-75
2022/03/15 07:16:53;;;;;;;;;;;10.10;67.60;;;;;;2392834;56;20081;-75
2022/03/15 07:19:19;;;;;;;;;;;10.10;67.90;;;;;;2391884;56;20312;-75
2022/03/15 07:21:46;;;;;;;;;;;10.10;68.30;;;;;;2624594;52;20152;-75
2022/03/15 07:24:13;;;;;;;;;;;10.10;68.40;;;;;;2392979;56;20412;-75
2022/03/15 07:26:39;;;;;;;;;;;10.10;68.10;;;;;;2393050;56;20105;-75
2022/03/15 07:29:06;;;;;;;;;;;10.10;68.10;;;;;;2392795;56;20203;-75
2022/03/15 07:31:32;;;;;;;;;;;10.20;67.70;;;;;;2405476;52;20045;-75
2022/03/15 07:33:59;;;;;;;;;;;10.20;67.20;;;;;;2391601;56;20264;-75
2022/03/15 07:36:25;;;;;;;;;;;10.20;67.00;;;;;;2391101;56;20152;-75
2022/03/15 07:38:52;;;;;;;;;;;10.20;67.10;;;;;;2391639;56;20085;-74
2022/03/15 07:41:21;;;;;;;;;;;10.20;67.20;;;;;;2391982;56;20132;-75
2022/03/15 07:43:48;;;;;;;;;;;10.20;67.40;;;;;;2392061;56;20076;-75
2022/03/15 07:46:14;;;;;;;;;;;10.20;67.40;;;;;;2392120;56;20144;-75
2022/03/15 07:48:41;;;;;;;;;;;10.30;67.00;;;;;;2391872;56;20143;-75
2022/03/15 07:51:07;;;;;;;;;;;10.30;66.80;;;;;;2391909;56;20065;-75
2022/03/15 07:53:34;;;;;;;;;;;10.30;66.60;;;;;;2390419;56;20053;-75
2022/03/15 07:56:00;;;;;;;;;;;10.30;66.30;;;;;;2391749;56;20077;-75
2022/03/15 07:58:27;;;;;;;;;;;10.30;66.80;;;;;;2391708;56;20152;-75
2022/03/15 08:00:56;;;;;;;;;;;10.30;66.90;;;;;;2391555;56;21238;-75
2022/03/15 08:03:23;;;;;;;;;;;10.30;67.20;;;;;;2391914;56;20076;-76
2022/03/15 08:05:50;;;;;;;;;;;10.30;67.10;;;;;;2392047;56;20115;-75
2022/03/15 08:08:16;;;;;;;;;;;10.40;67.00;;;;;;2392042;56;20113;-75
2022/03/15 08:10:43;;;;;;;;;;;10.40;66.30;;;;;;2391208;56;20069;-75
2022/03/15 08:13:09;;;;;;;;;;;10.40;66.30;;;;;;2391986;56;20124;-76
2022/03/15 08:15:36;;;;;;;;;;;10.40;66.50;;;;;;2390870;56;20471;-76
2022/03/15 08:18:03;;;;;;;;;;;10.40;66.30;;;;;;2391310;56;20132;-75
2022/03/15 08:20:32;;;;;;;;;;;10.50;66.50;;;;;;2390024;56;20538;-75
2022/03/15 08:22:59;;;;;;;;;;;10.50;66.70;;;;;;2391753;56;20112;-75
2022/03/15 08:25:26;;;;;;;;;;;10.50;66.90;;;;;;2526133;53;20135;-73
2022/03/15 08:27:53;;;;;;;;;;;10.60;66.90;;;;;;2324453;58;20143;-74
2022/03/15 08:30:20;;;;;;;;;;;10.50;66.90;;;;;;2323767;58;20125;-75
2022/03/15 08:32:47;;;;;;;;;;;10.50;66.90;;;;;;2348357;57;20348;-72
2022/03/15 08:35:13;;;;;;;;;;;10.50;67.00;;;;;;2350936;57;20081;-72
2022/03/15 08:37:42;;;;;;;;;;;10.60;67.30;;;;;;2350637;57;20142;-72
2022/03/15 08:40:11;;;;;;;;;;;10.60;67.30;;;;;;2350565;57;20160;-72
2022/03/15 08:42:37;;;;;;;;;;;10.60;67.20;;;;;;2350676;57;20130;-75
2022/03/15 08:45:05;;;;;;;;;;;10.70;67.30;;;;;;2350349;57;20368;-75
2022/03/15 08:47:33;;;;;;;;;;;10.70;67.50;;;;;;2347098;57;20086;-75
2022/03/15 08:49:59;;;;;;;;;;;10.70;68.10;;;;;;2349550;57;20168;-75
2022/03/15 08:52:26;;;;;;;;;;;10.80;66.70;;;;;;2349328;57;20122;-73
2022/03/15 08:54:52;;;;;;;;;;;10.80;66.40;;;;;;2349151;57;20333;-72
2022/03/15 08:57:19;;;;;;;;;;;10.90;66.60;;;;;;2350145;57;20093;-73
2022/03/15 08:59:46;;;;;;;;;;;10.90;66.90;;;;;;2350933;57;20117;-72
2022/03/15 09:02:12;;;;;;;;;;;10.90;67.00;;;;;;2350869;57;20074;-73
2022/03/15 09:04:39;;;;;;;;;;;10.90;67.40;;;;;;2351028;57;20078;-73
2022/03/15 09:07:05;;;;;;;;;;;11.00;66.70;;;;;;2351034;57;20193;-73
2022/03/15 09:09:32;;;;;;;;;;;11.10;66.30;;;;;;2350212;57;20074;-72
2022/03/15 09:11:58;;;;;;;;;;;11.10;66.10;;;;;;2349356;57;20397;-73
2022/03/15 09:14:25;;;;;;;;;;;11.20;66.00;;;;;;2350006;57;20365;-72
2022/03/15 09:16:51;;;;;;;;;;;11.20;66.20;;;;;;2349941;57;20138;-73
2022/03/15 09:19:17;;;;;;;;;;;11.20;66.60;;;;;;2348626;57;20268;-75
2022/03/15 09:21:44;;;;;;;;;;;11.20;65.70;;;;;;2349936;57;20122;-75
2022/03/15 09:24:10;;;;;;;;;;;11.30;65.80;;;;;;2351932;57;20121;-72
2022/03/15 09:26:37;;;;;;;;;;;11.30;66.20;;;;;;2351687;57;20110;-73
2022/03/15 09:29:04;;;;;;;;;;;11.40;66.40;;;;;;2599176;53;20106;-73
2022/03/15 09:31:30;;;;;;;;;;;11.40;66.60;;;;;;2351432;57;20094;-73
2022/03/15 09:33:57;;;;;;;;;;;11.50;66.70;;;;;;2351442;57;20152;-73
2022/03/15 09:36:30;;;;;;;;;;;11.50;66.70;;;;;;2599608;52;20372;-72
2022/03/15 09:38:56;;;;;;;;;;;11.50;67.20;;;;;;2350229;57;20297;-73
2022/03/15 09:41:24;;;;;;;;;;;11.60;67.00;;;;;;2350919;57;20087;-75
2022/03/15 09:43:52;;;;;;;;;;;11.60;66.70;;;;;;2351392;57;20157;-76
2022/03/15 09:46:21;;;;;;;;;;;11.70;66.00;;;;;;2350740;57;20154;-75
2022/03/15 09:48:51;;;;;;;;;;;11.80;66.10;;;;;;2351371;57;20303;-75
2022/03/15 09:51:18;;;;;;;;;;;11.80;64.90;;;;;;2351363;57;20138;-76
2022/03/15 09:53:46;;;;;;;;;;;11.90;65.40;;;;;;2599320;52;20134;-74
2022/03/15 09:56:15;;;;;;;;;;;11.90;65.70;;;;;;2350838;57;20114;-74
2022/03/15 09:58:42;;;;;;;;;;;11.90;66.20;;;;;;2598573;53;20862;-74
2022/03/15 10:01:13;;;;;;;;;;;11.90;66.00;;;;;;2350822;57;20087;-73
2022/03/15 10:03:40;;;;;;;;;;;12.00;65.90;;;;;;2599822;52;20264;-73
2022/03/15 10:06:06;;;;;;;;;;;12.00;65.90;;;;;;2352095;57;20070;-74
2022/03/15 10:08:33;;;;;;;;;;;12.10;65.40;;;;;;2352068;57;20411;-74
2022/03/15 10:10:59;;;;;;;;;;;12.10;65.50;;;;;;2351767;57;20090;-73
2022/03/15 10:13:26;;;;;;;;;;;12.20;65.60;;;;;;2597707;53;20082;-74
2022/03/15 10:15:54;;;;;;;;;;;12.20;65.50;;;;;;2352266;57;20219;-75
2022/03/15 10:18:21;;;;;;;;;;;12.30;65.20;;;;;;2351997;57;20067;-76
2022/03/15 10:20:48;;;;;;;;;;;12.40;66.10;;;;;;2351837;57;20087;-75
2022/03/15 10:23:16;;;;;;;;;;;12.40;65.30;;;;;;2600281;53;20062;-76
2022/03/15 10:25:45;;;;;;;;;;;12.50;65.10;;;;;;2351855;57;20470;-75
2022/03/15 10:28:13;;;;;;;;;;;12.60;63.90;;;;;;2351685;57;20292;-76
2022/03/15 10:30:41;;;;;;;;;;;12.60;62.60;;;;;;2599754;52;20138;-76
2022/03/15 10:33:07;;;;;;;;;;;12.60;61.90;;;;;;2350465;57;20062;-75
2022/03/15 10:35:37;;;;;;;;;;;12.70;61.50;;;;;;2352074;57;20099;-76
2022/03/15 10:38:05;;;;;;;;;;;12.70;62.40;;;;;;2351593;57;20146;-75
2022/03/15 10:40:33;;;;;;;;;;;12.70;63.10;;;;;;2351843;57;20117;-75
2022/03/15 10:43:04;;;;;;;;;;;12.70;63.60;;;;;;2352101;57;20137;-76
2022/03/15 10:45:31;;;;;;;;;;;12.80;63.70;;;;;;2351432;57;20085;-76
2022/03/15 10:47:57;;;;;;;;;;;12.80;63.70;;;;;;2350227;57;20145;-76
2022/03/15 10:50:24;;;;;;;;;;;12.90;63.40;;;;;;2349250;57;20094;-75
2022/03/15 10:52:51;;;;;;;;;;;12.90;63.40;;;;;;2599415;52;20113;-75
2022/03/15 10:55:18;;;;;;;;;;;13.00;63.50;;;;;;2351698;57;20087;-76
2022/03/15 10:57:46;;;;;;;;;;;13.10;62.60;;;;;;2351761;57;20074;-75
2022/03/15 11:00:14;;;;;;;;;;;13.10;61.90;;;;;;2351339;57;20329;-75
2022/03/15 11:02:42;;;;;;;;;;;13.20;61.90;;;;;;2351350;57;20082;-75
2022/03/15 11:05:08;;;;;;;;;;;13.20;61.80;;;;;;2351295;57;20074;-76
2022/03/15 11:07:38;;;;;;;;;;;13.30;61.90;;;;;;2349909;57;20126;-75
2022/03/15 11:10:09;;;;;;;;;;;13.30;61.80;;;;;;2351567;57;20082;-73
2022/03/15 11:12:35;;;;;;;;;;;13.40;62.00;;;;;;2351895;57;20078;-71
2022/03/15 11:15:02;;;;;;;;;;;13.40;62.30;;;;;;2351557;57;20137;-71
2022/03/15 11:17:29;;;;;;;;;;;13.40;62.20;;;;;;2351096;57;20047;-74
2022/03/15 11:19:57;;;;;;;;;;;13.50;62.30;;;;;;2349288;57;20142;-73
2022/03/15 11:22:24;;;;;;;;;;;13.40;62.40;;;;;;2350994;57;20186;-72
2022/03/15 11:24:57;;;;;;;;;;;13.40;61.30;;;;;;2350548;57;20074;-73
2022/03/15 11:27:25;;;;;;;;;;;13.40;61.50;;;;;;2598643;53;20141;-73
2022/03/15 11:29:56;;;;;;;;;;;13.50;62.00;;;;;;2351194;57;20090;-73
2022/03/15 11:32:23;;;;;;;;;;;13.50;61.30;;;;;;2351746;57;20145;-73
2022/03/15 11:34:50;;;;;;;;;;;13.60;60.70;;;;;;2351735;57;20102;-73
2022/03/15 11:37:16;;;;;;;;;;;13.60;60.50;;;;;;2351796;57;20082;-74
2022/03/15 11:39:43;;;;;;;;;;;13.70;60.50;;;;;;2351227;57;20074;-73
2022/03/15 11:42:11;;;;;;;;;;;13.70;60.70;;;;;;2350424;57;20177;-72
2022/03/15 11:44:46;;;;;;;;;;;13.90;60.70;;;;;;2350233;57;20074;-71
2022/03/15 11:47:16;;;;;;;;;;;13.90;59.90;;;;;;2351929;57;20058;-73
2022/03/15 11:49:47;;;;;;;;;;;13.90;59.90;;;;;;2351165;57;20098;-72
2022/03/15 11:52:20;;;;;;;;;;;14.00;59.90;;;;;;2352197;57;20083;-72
2022/03/15 11:54:50;;;;;;;;;;;14.00;60.10;;;;;;2351728;57;20111;-73
2022/03/15 11:57:24;;;;;;;;;;;14.00;60.20;;;;;;2351352;57;20070;-73
2022/03/15 11:59:51;;;;;;;;;;;14.00;59.90;;;;;;2350757;57;20082;-73
2022/03/15 12:02:27;;;;;;;;;;;14.10;59.10;;;;;;2350124;57;20059;-73
2022/03/15 12:04:54;;;;;;;;;;;14.10;59.00;;;;;;2351838;57;20133;-74
2022/03/15 12:07:34;;;;;;;;;;;14.10;58.80;;;;;;2351360;57;20145;-74
2022/03/15 12:10:00;;;;;;;;;;;14.20;58.40;;;;;;2351618;57;20153;-74
2022/03/15 12:12:30;;;;;;;;;;;14.20;59.40;;;;;;2351639;57;20102;-74
2022/03/15 12:14:57;;;;;;;;;;;14.20;59.00;;;;;;2351208;57;20137;-74
2022/03/15 12:17:23;;;;;;;;;;;14.30;59.10;;;;;;2349873;57;20119;-74
2022/03/15 12:19:50;;;;;;;;;;;14.30;58.40;;;;;;2351222;57;20080;-74
2022/03/15 12:22:27;;;;;;;;;;;14.40;59.10;;;;;;2351797;57;20082;-74
2022/03/15 12:25:04;;;;;;;;;;;14.40;58.40;;;;;;2351874;57;20085;-74
2022/03/15 12:27:31;;;;;;;;;;;14.50;58.30;;;;;;2351832;57;20079;-75
2022/03/15 12:29:58;;;;;;;;;;;14.50;58.10;;;;;;2351445;57;20062;-74
2022/03/15 12:32:26;;;;;;;;;;;14.50;58.10;;;;;;2351084;57;20066;-74
2022/03/15 12:34:55;;;;;;;;;;;14.50;58.10;;;;;;2349901;57;20138;-75
2022/03/15 12:37:29;;;;;;;;;;;14.60;58.20;;;;;;2351492;57;20141;-74
2022/03/15 12:39:57;;;;;;;;;;;14.60;58.30;;;;;;2351133;57;20138;-74
2022/03/15 12:42:24;;;;;;;;;;;14.70;58.50;;;;;;2351624;57;20332;-74
2022/03/15 12:44:51;;;;;;;;;;;14.70;58.40;;;;;;2351167;57;20078;-74
2022/03/15 12:47:18;;;;;;;;;;;14.70;58.00;;;;;;2351531;57;20090;-74
2022/03/15 12:50:03;;;;;;;;;;;14.70;58.00;;;;;;2351855;57;20090;-74
2022/03/15 12:52:36;;;;;;;;;;;14.80;58.00;;;;;;2347514;57;20190;-74
2022/03/15 12:55:03;;;;;;;;;;;14.80;58.20;;;;;;2351150;57;20090;-74
2022/03/15 12:57:30;;;;;;;;;;;14.80;57.80;;;;;;2350932;57;20094;-74
2022/03/15 12:59:57;;;;;;;;;;;14.90;57.70;;;;;;2351065;57;20055;-75
2022/03/15 13:02:23;;;;;;;;;;;14.90;57.60;;;;;;2351063;57;20114;-73
2022/03/15 13:04:50;;;;;;;;;;;14.90;57.40;;;;;;2351607;57;20082;-74
2022/03/15 13:07:26;;;;;;;;;;;14.90;56.80;;;;;;2351084;57;20113;-75
2022/03/15 13:09:56;;;;;;;;;;;14.90;56.60;;;;;;2350828;57;20086;-74
2022/03/15 13:12:28;;;;;;;;;;;14.90;56.60;;;;;;2350691;57;20082;-75
2022/03/15 13:14:55;;;;;;;;;;;14.90;56.30;;;;;;2350825;57;20086;-73
2022/03/15 13:17:22;;;;;;;;;;;14.90;57.10;;;;;;2350808;57;20123;-74
2022/03/15 13:19:48;;;;;;;;;;;14.90;57.20;;;;;;2350990;57;20106;-74
2022/03/15 13:22:25;;;;;;;;;;;14.90;56.60;;;;;;2351068;57;20082;-73
2022/03/15 13:24:52;;;;;;;;;;;14.90;56.00;;;;;;2351543;57;20166;-74
2022/03/15 13:27:19;;;;;;;;;;;15.00;56.30;;;;;;2349790;57;20086;-74
2022/03/15 13:29:45;;;;;;;;;;;15.00;56.30;;;;;;2350931;57;20137;-75
2022/03/15 13:32:15;;;;;;;;;;;15.10;56.50;;;;;;2349725;57;20334;-74
2022/03/15 13:34:42;;;;;;;;;;;15.10;56.40;;;;;;2350889;57;20058;-75
2022/03/15 13:37:08;;;;;;;;;;;15.20;56.40;;;;;;2599448;52;20305;-75
2022/03/15 13:39:36;;;;;;;;;;;15.20;56.40;;;;;;2350943;57;20142;-76
2022/03/15 13:42:05;;;;;;;;;;;15.20;56.20;;;;;;2599459;52;20114;-75
2022/03/15 13:44:35;;;;;;;;;;;15.30;56.20;;;;;;2350912;57;20082;-75
2022/03/15 13:47:03;;;;;;;;;;;15.30;56.20;;;;;;2351461;57;20077;-75
2022/03/15 13:49:31;;;;;;;;;;;15.30;56.30;;;;;;2348884;57;20086;-75
2022/03/15 13:52:04;;;;;;;;;;;15.40;56.20;;;;;;2350651;57;20110;-75
2022/03/15 13:54:31;;;;;;;;;;;15.40;56.10;;;;;;2351415;57;20142;-73
2022/03/15 13:56:59;;;;;;;;;;;15.40;55.80;;;;;;2599511;53;20075;-75
2022/03/15 13:59:27;;;;;;;;;;;15.40;55.50;;;;;;2350754;57;20078;-75
2022/03/15 14:01:58;;;;;;;;;;;15.40;55.30;;;;;;2351253;57;20083;-75
2022/03/15 14:04:26;;;;;;;;;;;15.40;55.60;;;;;;2350947;57;20086;-74
2022/03/15 14:06:57;;;;;;;;;;;15.40;55.40;;;;;;2349739;57;20058;-75
2022/03/15 14:09:25;;;;;;;;;;;15.40;55.50;;;;;;2351072;57;20133;-75
2022/03/15 14:12:02;;;;;;;;;;;15.40;55.60;;;;;;2599020;52;20066;-74
2022/03/15 14:14:31;;;;;;;;;;;15.40;55.50;;;;;;2351309;57;20082;-75
2022/03/15 14:17:02;;;;;;;;;;;15.40;55.20;;;;;;2351215;57;20236;-76
2022/03/15 14:19:28;;;;;;;;;;;15.40;55.10;;;;;;2350909;57;20079;-75
2022/03/15 14:22:04;;;;;;;;;;;15.40;55.10;;;;;;2349516;57;20078;-75
2022/03/15 14:24:33;;;;;;;;;;;15.40;55.10;;;;;;2372394;54;20323;-76
2022/03/15 14:27:00;;;;;;;;;;;15.40;55.00;;;;;;2244101;60;20078;-76